createdAt,value
2022-10-11T00:02:52.251Z,81.10
2022-10-11T00:07:57.337Z,80.56
2022-10-11T00:13:01.148Z,79.41
2022-10-11T00:18:05.581Z,79.08
2022-10-11T00:23:10.322Z,78.83
2022-10-11T00:28:13.665Z,77.13
2022-10-11T00:33:17.019Z,76.65
2022-10-11T00:38:21.810Z,74.83
2022-10-11T00:43:26.801Z,74.33
2022-10-11T00:48:37.532Z,73.16
2022-10-11T00:53:43.021Z,72.43
2022-10-11T00:58:46.777Z,70.33
2022-10-11T01:03:50.122Z,70.44
2022-10-11T01:08:55.142Z,69.92
2022-10-11T01:14:20.859Z,68.71
2022-10-11T01:19:56.038Z,68.41
2022-10-11T01:25:15.941Z,68.78
2022-10-11T01:30:23.238Z,68.61
2022-10-11T01:35:31.726Z,68.24
2022-10-11T01:40:38.442Z,68.24
2022-10-11T01:45:44.627Z,68.22
2022-10-11T01:50:49.757Z,68.42
2022-10-11T01:55:58.432Z,67.84
2022-10-11T02:01:13.112Z,67.95
2022-10-11T02:06:25.786Z,68.37
2022-10-11T02:12:03.162Z,68.44
2022-10-11T02:17:12.166Z,69.19
2022-10-11T02:22:20.553Z,68.15
2022-10-11T02:27:28.713Z,68.32
2022-10-11T02:32:35.157Z,68.22
2022-10-11T02:37:48.051Z,68.17
2022-10-11T02:42:58.781Z,69.46
2022-10-11T02:48:04.529Z,68.79
2022-10-11T02:53:08.094Z,67.93
2022-10-11T02:58:11.377Z,68.69
2022-10-11T03:09:42.493Z,69.86
2022-10-11T03:14:45.856Z,69.58
2022-10-11T03:19:49.236Z,69.58
2022-10-11T03:24:53.926Z,69.79
2022-10-11T03:29:57.860Z,70.07
2022-10-11T03:35:01.436Z,69.70
2022-10-11T03:40:09.563Z,70.34
2022-10-11T03:45:13.339Z,70.48
2022-10-11T03:50:16.655Z,70.10
2022-10-11T03:55:21.456Z,70.41
2022-10-11T04:00:24.786Z,70.07
2022-10-11T04:05:28.090Z,71.51
2022-10-11T04:10:32.794Z,71.91
2022-10-11T04:15:37.836Z,70.89
2022-10-11T04:20:41.231Z,73.01
2022-10-11T04:25:48.290Z,76.11
2022-10-11T04:30:52.199Z,79.15
2022-10-11T04:35:56.357Z,79.37
2022-10-11T04:41:08.603Z,79.37
2022-10-11T04:46:12.148Z,82.57
2022-10-11T04:51:18.446Z,85.47
2022-10-11T04:56:23.344Z,90.42
2022-10-11T05:01:26.685Z,90.98
2022-10-11T05:06:30.086Z,93.05
2022-10-11T05:11:34.846Z,94.52
2022-10-11T05:16:38.188Z,94.29
2022-10-11T05:21:41.536Z,93.68
2022-10-11T05:26:46.358Z,94.01
2022-10-11T05:31:49.671Z,93.14
2022-10-11T05:36:53.001Z,92.69
2022-10-11T05:41:58.133Z,92.83
2022-10-11T05:47:04.332Z,92.39
2022-10-11T05:52:09.240Z,92.20
2022-10-11T05:57:14.282Z,92.53
2022-10-11T06:02:17.599Z,93.16
2022-10-11T06:07:20.978Z,93.42
2022-10-11T06:12:25.751Z,92.60
2022-10-11T06:17:32.153Z,92.87
2022-10-11T06:22:35.565Z,92.50
2022-10-11T06:27:40.272Z,94.37
2022-10-11T06:32:43.591Z,93.12
2022-10-11T06:37:46.968Z,92.75
2022-10-11T06:42:51.629Z,93.13
2022-10-11T06:47:55.057Z,92.06
2022-10-11T06:52:58.410Z,92.25
2022-10-11T06:58:03.294Z,89.96
2022-10-11T07:03:06.699Z,88.99
2022-10-11T07:08:10.016Z,87.32
2022-10-11T07:13:17.196Z,84.85
2022-10-11T07:18:20.783Z,85.80
2022-10-11T07:23:24.438Z,82.96
2022-10-11T07:28:30.634Z,81.92
2022-10-11T07:33:34.986Z,78.20
2022-10-11T07:38:40.653Z,71.97
2022-10-11T07:43:47.808Z,70.64
2022-10-11T07:48:51.209Z,72.89
2022-10-11T07:53:56.638Z,72.39
2022-10-11T07:59:03.609Z,72.63
2022-10-11T08:04:07.122Z,71.45
2022-10-11T08:09:10.650Z,73.58
2022-10-11T08:14:15.609Z,76.19
2022-10-11T08:19:19.390Z,82.37
2022-10-11T08:24:22.782Z,83.00
2022-10-11T08:29:27.534Z,86.42
2022-10-11T08:34:31.390Z,86.49
2022-10-11T08:39:35.283Z,85.78
2022-10-11T08:45:09.466Z,85.83
2022-10-11T08:50:09.566Z,86.34
2022-10-11T08:55:19.315Z,86.17
2022-10-11T09:00:25.408Z,85.78
2022-10-11T09:05:35.327Z,88.57
2022-10-11T09:10:56.429Z,86.13
2022-10-11T09:16:11.478Z,88.86
2022-10-11T09:21:26.100Z,88.11
2022-10-11T09:26:34.552Z,88.62
2022-10-11T09:31:39.331Z,88.67
2022-10-11T09:36:48.109Z,87.77
2022-10-11T09:41:57.881Z,86.67
2022-10-11T09:47:02.405Z,86.47
2022-10-11T09:52:12.027Z,87.05
2022-10-11T09:57:24.981Z,86.54
2022-10-11T10:02:30.600Z,87.97
2022-10-11T10:07:36.404Z,86.85
2022-10-11T10:12:39.841Z,84.00
2022-10-11T10:17:51.344Z,83.27
2022-10-11T10:22:55.101Z,82.65
2022-10-11T10:28:00.478Z,82.98
2022-10-11T10:33:08.835Z,82.29
2022-10-11T10:38:19.852Z,82.14
2022-10-11T10:43:28.816Z,83.73
2022-10-11T10:49:12.035Z,84.83
2022-10-11T10:54:15.712Z,82.82
2022-10-11T10:59:42.755Z,81.40
2022-10-11T11:04:53.826Z,80.75
2022-10-11T11:10:02.521Z,77.78
2022-10-11T11:15:13.324Z,78.52
2022-10-11T11:20:32.883Z,75.72
2022-10-11T11:25:45.145Z,76.45
2022-10-11T11:30:58.442Z,73.21
2022-10-11T11:36:12.053Z,69.19
2022-10-11T11:41:18.770Z,67.64
2022-10-11T11:46:44.354Z,63.16
2022-10-11T11:51:52.826Z,61.47
2022-10-11T11:57:00.997Z,55.59
2022-10-11T12:02:31.159Z,56.05
2022-10-11T12:07:49.959Z,56.35
2022-10-11T12:13:07.197Z,57.26
2022-10-11T12:18:18.030Z,56.97
2022-10-11T12:23:50.549Z,56.66
2022-10-11T12:29:28.675Z,53.85
2022-10-11T12:34:35.620Z,51.92
2022-10-11T12:39:51.759Z,48.46
2022-10-11T12:45:32.264Z,47.75
2022-10-11T12:50:49.573Z,46.63
2022-10-11T12:56:02.278Z,47.08
2022-10-11T13:01:21.462Z,47.63
2022-10-11T13:06:28.219Z,45.76
2022-10-11T13:11:36.036Z,44.26
2022-10-11T13:16:56.736Z,44.79
2022-10-11T13:22:02.505Z,45.42
2022-10-11T13:27:09.911Z,44.86
2022-10-11T13:32:16.800Z,42.26
2022-10-11T13:37:22.599Z,41.67
2022-10-11T13:42:32.027Z,40.69
2022-10-11T13:47:36.486Z,41.24
2022-10-11T13:52:54.212Z,40.76
2022-10-11T13:58:00.985Z,41.25
2022-10-11T14:03:08.993Z,39.86
2022-10-11T14:08:26.341Z,40.00
2022-10-11T14:13:34.590Z,42.01
2022-10-11T14:18:49.039Z,42.32
2022-10-11T14:23:58.534Z,42.64
2022-10-11T14:29:06.923Z,43.30
2022-10-11T14:34:20.376Z,42.23
2022-10-11T14:39:25.745Z,42.45
2022-10-11T14:44:30.471Z,44.12
2022-10-11T14:49:35.619Z,44.92
2022-10-11T14:54:38.999Z,46.66
2022-10-11T14:59:46.542Z,47.24
2022-10-11T15:04:49.932Z,47.13
2022-10-11T15:09:53.301Z,47.92
2022-10-11T15:14:58.282Z,49.54
2022-10-11T15:20:01.726Z,50.00
2022-10-11T15:25:05.894Z,50.54
2022-10-11T15:30:15.912Z,49.79
2022-10-11T15:35:20.545Z,49.14
2022-10-11T15:40:26.663Z,50.27
2022-10-11T15:45:32.305Z,50.72
2022-10-11T15:50:37.923Z,51.45
2022-10-11T15:55:44.743Z,53.29
2022-10-11T16:00:51.518Z,54.84
2022-10-11T16:05:55.732Z,56.83
2022-10-11T16:11:00.071Z,58.42
2022-10-11T16:16:07.515Z,59.80
2022-10-11T16:21:14.443Z,61.32
2022-10-11T16:26:19.119Z,62.36
2022-10-11T16:31:23.910Z,63.54
2022-10-11T16:36:35.129Z,64.48
2022-10-11T16:41:38.982Z,65.53
2022-10-11T16:46:48.203Z,66.52
2022-10-11T16:51:52.884Z,67.14
2022-10-11T16:56:56.311Z,68.32
2022-10-11T17:02:01.140Z,69.01
2022-10-11T17:07:04.582Z,70.53
2022-10-11T17:12:09.145Z,72.11
2022-10-11T17:17:14.450Z,72.60
2022-10-11T17:22:20.124Z,72.28
2022-10-11T17:27:23.527Z,72.95
2022-10-11T17:32:43.767Z,74.02
2022-10-11T17:37:47.284Z,75.45
2022-10-11T17:42:50.680Z,75.88
2022-10-11T17:47:55.647Z,76.74
2022-10-11T17:52:59.172Z,76.55
2022-10-11T17:58:03.404Z,76.83
2022-10-11T18:03:08.473Z,77.42
2022-10-11T18:08:11.894Z,78.00
2022-10-11T18:13:15.500Z,78.39
2022-10-11T18:18:20.865Z,78.51
2022-10-11T18:23:24.225Z,79.19
2022-10-11T18:28:27.671Z,79.44
2022-10-11T18:33:32.455Z,79.84
2022-10-11T18:38:38.113Z,79.46
2022-10-11T18:43:42.357Z,79.49
2022-10-11T18:48:49.742Z,80.18
2022-10-11T18:53:54.509Z,80.60
2022-10-11T18:58:59.181Z,81.00
2022-10-11T19:04:05.529Z,82.23
2022-10-11T19:09:11.772Z,82.13
2022-10-11T19:14:17.289Z,83.29
2022-10-11T19:19:23.949Z,84.34
2022-10-11T19:24:29.169Z,83.96
2022-10-11T19:29:34.041Z,84.67
2022-10-11T19:34:38.803Z,85.49
2022-10-11T19:39:42.175Z,86.35
2022-10-11T19:44:45.547Z,85.85
2022-10-11T19:49:50.281Z,87.26
2022-10-11T19:54:53.668Z,87.61
2022-10-11T20:00:03.367Z,87.58
2022-10-11T20:05:09.858Z,88.17
2022-10-11T20:10:32.554Z,88.77
2022-10-11T20:15:45.535Z,89.05
2022-10-11T20:20:55.281Z,89.37
2022-10-11T20:26:00.048Z,89.77
2022-10-11T20:31:06.627Z,90.06
2022-10-11T20:36:13.406Z,90.17
2022-10-11T20:41:19.097Z,91.07
2022-10-11T20:46:24.562Z,91.00
2022-10-11T20:51:29.809Z,91.59
2022-10-11T20:56:33.970Z,92.10
2022-10-11T21:01:39.628Z,92.37
2022-10-11T21:06:44.650Z,91.97
2022-10-11T21:11:47.988Z,91.68
2022-10-11T21:16:51.533Z,91.78
2022-10-11T21:21:56.375Z,91.56
2022-10-11T21:27:03.003Z,91.68
2022-10-11T21:32:08.866Z,91.76
2022-10-11T21:37:16.008Z,92.25
2022-10-11T21:42:19.459Z,92.41
2022-10-11T21:47:22.917Z,92.65
2022-10-11T21:52:27.688Z,92.52
2022-10-11T21:57:31.096Z,93.32
2022-10-11T22:02:34.731Z,93.37
2022-10-11T22:07:39.707Z,93.59
2022-10-11T22:12:43.057Z,93.80
2022-10-11T22:17:47.106Z,93.97
2022-10-11T22:22:52.079Z,93.49
2022-10-11T22:27:55.503Z,93.86
2022-10-11T22:32:58.854Z,94.69
2022-10-11T22:38:05.542Z,94.62
2022-10-11T22:43:08.877Z,95.12
2022-10-11T22:48:13.218Z,95.48
2022-10-11T22:53:18.466Z,95.56
2022-10-11T22:58:21.870Z,95.00
2022-10-11T23:03:25.282Z,94.88
2022-10-11T23:08:29.943Z,95.07
2022-10-11T23:13:33.409Z,95.16
2022-10-11T23:18:37.220Z,94.94
2022-10-11T23:23:42.124Z,95.05
2022-10-11T23:28:45.648Z,95.02
2022-10-11T23:33:49.480Z,94.66
2022-10-11T23:38:55.541Z,94.81
2022-10-11T23:43:59.249Z,95.11
2022-10-11T23:49:02.782Z,95.39
2022-10-11T23:54:07.718Z,95.81
2022-10-11T23:59:11.105Z,96.05
